createdAt,value
2023-03-15T00:00:49.954Z,99489.61
2023-03-15T00:03:05.548Z,99491.48
2023-03-15T00:05:18.197Z,99495.28
2023-03-15T00:07:31.443Z,99500.09
2023-03-15T00:09:44.017Z,99496.86
2023-03-15T00:11:56.816Z,99503.89
2023-03-15T00:14:10.555Z,99504.92
2023-03-15T00:16:27.015Z,99501.66
2023-03-15T00:18:39.738Z,99514.57
2023-03-15T00:20:52.438Z,99515.90
2023-03-15T00:23:05.092Z,99524.50
2023-03-15T00:25:17.925Z,99526.38
2023-03-15T00:27:30.664Z,99533.02
2023-03-15T00:29:43.398Z,99536.77
2023-03-15T00:31:56.068Z,99538.81
2023-03-15T00:34:08.686Z,99542.05
2023-03-15T00:36:24.842Z,99550.06
2023-03-15T00:38:39.872Z,99552.67
2023-03-15T00:40:52.509Z,99556.77
2023-03-15T00:43:05.390Z,99566.75
2023-03-15T00:45:20.785Z,99574.83
2023-03-15T00:47:33.746Z,99580.84
2023-03-15T00:49:46.412Z,99586.14
2023-03-15T00:51:59.012Z,99587.57
2023-03-15T00:54:13.821Z,99591.37
2023-03-15T00:56:30.032Z,99595.30
2023-03-15T00:58:43.735Z,99595.66
2023-03-15T01:00:56.641Z,99603.54
2023-03-15T01:03:09.735Z,99605.54
2023-03-15T01:05:23.156Z,99603.84
2023-03-15T01:07:36.274Z,99599.61
2023-03-15T01:09:49.204Z,99602.85
2023-03-15T01:12:01.951Z,99606.31
2023-03-15T01:14:14.750Z,99609.10
2023-03-15T01:16:27.946Z,99615.83
2023-03-15T01:18:41.425Z,99614.09
2023-03-15T01:20:54.361Z,99617.55
2023-03-15T01:23:07.142Z,99617.92
2023-03-15T01:25:20.003Z,99618.77
2023-03-15T01:27:32.946Z,99622.21
2023-03-15T01:29:45.717Z,99626.86
2023-03-15T01:31:58.517Z,99622.09
2023-03-15T01:34:11.296Z,99620.73
2023-03-15T01:36:24.618Z,99616.33
2023-03-15T01:38:37.487Z,99618.83
2023-03-15T01:40:50.278Z,99613.55
2023-03-15T01:43:06.027Z,99619.73
2023-03-15T01:45:56.313Z,99623.52
2023-03-15T01:48:09.079Z,99623.73
2023-03-15T01:50:25.478Z,99627.23
2023-03-15T01:52:41.486Z,99628.79
2023-03-15T01:55:02.167Z,99627.96
2023-03-15T01:57:27.212Z,99635.05
2023-03-15T01:59:45.398Z,99644.67
2023-03-15T02:02:00.060Z,99642.42
2023-03-15T02:04:18.399Z,99641.23
2023-03-15T02:06:35.073Z,99648.27
2023-03-15T02:08:55.130Z,99657.83
2023-03-15T02:11:07.941Z,99667.63
2023-03-15T02:13:23.717Z,99675.81
2023-03-15T02:15:36.393Z,99676.28
2023-03-15T02:17:49.287Z,99679.61
2023-03-15T02:20:14.495Z,99686.55
2023-03-15T02:22:41.539Z,99679.09
2023-03-15T02:25:13.652Z,99686.13
2023-03-15T02:27:30.726Z,99691.63
2023-03-15T02:29:43.769Z,99692.16
2023-03-15T02:31:57.926Z,99693.39
2023-03-15T02:34:10.593Z,99688.95
2023-03-15T02:37:19.296Z,99695.19
2023-03-15T02:39:31.932Z,99700.25
2023-03-15T02:41:48.637Z,99715.31
2023-03-15T02:44:11.375Z,99719.94
2023-03-15T02:46:24.258Z,99722.83
2023-03-15T02:48:38.466Z,99725.73
2023-03-15T02:50:51.009Z,99731.83
2023-03-15T02:53:03.950Z,99741.39
2023-03-15T02:55:19.282Z,99748.62
2023-03-15T02:57:31.915Z,99753.08
2023-03-15T02:59:44.569Z,99757.36
2023-03-15T03:01:57.193Z,99760.98
2023-03-15T03:04:09.922Z,99768.02
2023-03-15T03:06:22.773Z,99768.90
2023-03-15T03:08:35.410Z,99764.14
2023-03-15T03:10:48.100Z,99762.07
2023-03-15T03:13:00.702Z,99764.70
2023-03-15T03:15:13.335Z,99760.27
2023-03-15T03:17:26.008Z,99760.61
2023-03-15T03:19:38.528Z,99765.99
2023-03-15T03:21:54.499Z,99772.39
2023-03-15T03:24:07.338Z,99775.70
2023-03-15T03:26:19.929Z,99774.52
2023-03-15T03:28:33.290Z,99775.35
2023-03-15T03:30:45.924Z,99780.48
2023-03-15T03:32:58.541Z,99783.22
2023-03-15T03:35:11.247Z,99785.95
2023-03-15T03:37:23.862Z,99784.23
2023-03-15T03:39:36.495Z,99790.40
2023-03-15T03:41:49.898Z,99797.77
2023-03-15T03:44:02.505Z,99803.94
2023-03-15T03:46:15.087Z,99812.00
2023-03-15T03:48:27.774Z,99817.64
2023-03-15T03:50:40.499Z,99818.33
2023-03-15T03:52:53.112Z,99821.95
2023-03-15T03:55:06.184Z,99819.08
2023-03-15T03:57:18.737Z,99821.95
2023-03-15T03:59:31.370Z,99818.85
2023-03-15T04:01:43.965Z,99822.61
2023-03-15T04:03:56.553Z,99825.73
2023-03-15T04:06:09.507Z,99826.45
2023-03-15T04:08:23.745Z,99824.27
2023-03-15T04:10:36.305Z,99822.61
2023-03-15T04:12:48.891Z,99824.21
2023-03-15T04:15:01.645Z,99826.27
2023-03-15T04:17:14.230Z,99826.62
2023-03-15T04:19:27.093Z,99827.69
2023-03-15T04:21:39.647Z,99826.36
2023-03-15T04:23:52.181Z,99831.34
2023-03-15T04:26:08.266Z,99829.63
2023-03-15T04:28:22.784Z,99833.21
2023-03-15T04:30:35.337Z,99833.29
2023-03-15T04:32:47.949Z,99841.34
2023-03-15T04:35:02.209Z,99847.89
2023-03-15T04:37:14.759Z,99845.34
2023-03-15T04:39:27.430Z,99852.03
2023-03-15T04:41:40.056Z,99851.04
2023-03-15T04:43:52.629Z,99857.02
2023-03-15T04:46:05.244Z,99853.59
2023-03-15T04:48:17.833Z,99856.15
2023-03-15T04:50:31.765Z,99864.52
2023-03-15T04:52:44.320Z,99868.48
2023-03-15T04:54:56.880Z,99868.29
2023-03-15T04:57:09.564Z,99871.03
2023-03-15T04:59:22.108Z,99875.30
2023-03-15T05:01:34.704Z,99875.67
2023-03-15T05:03:47.256Z,99879.28
2023-03-15T05:06:07.887Z,99881.16
2023-03-15T05:08:20.796Z,99890.45
2023-03-15T05:10:33.465Z,99889.10
2023-03-15T05:12:46.014Z,99892.54
2023-03-15T05:14:58.585Z,99891.86
2023-03-15T05:17:11.093Z,99889.63
2023-03-15T05:19:24.115Z,99896.80
2023-03-15T05:21:36.894Z,99897.48
2023-03-15T05:23:49.389Z,99902.59
2023-03-15T05:26:02.113Z,99909.09
2023-03-15T05:28:18.291Z,99915.05
2023-03-15T05:30:31.651Z,99911.52
2023-03-15T05:32:44.891Z,99919.90
2023-03-15T05:34:57.508Z,99927.44
2023-03-15T05:37:10.329Z,99935.13
2023-03-15T05:39:23.489Z,99940.25
2023-03-15T05:41:36.159Z,99946.07
2023-03-15T05:43:48.693Z,99945.87
2023-03-15T05:46:01.284Z,99949.27
2023-03-15T05:48:14.441Z,99952.15
2023-03-15T05:50:28.252Z,99954.50
2023-03-15T05:52:40.806Z,99959.80
2023-03-15T05:54:53.449Z,99960.79
2023-03-15T05:57:06.040Z,99965.04
2023-03-15T05:59:18.555Z,99972.19
2023-03-15T06:01:31.637Z,99982.23
2023-03-15T06:03:44.259Z,99984.04
2023-03-15T06:05:57.817Z,99986.90
2023-03-15T06:08:10.481Z,99987.38
2023-03-15T06:10:23.047Z,99992.61
2023-03-15T06:12:35.600Z,99993.41
2023-03-15T06:14:48.297Z,99995.28
2023-03-15T06:17:00.995Z,99995.22
2023-03-15T06:19:13.664Z,100004.09
2023-03-15T06:21:27.351Z,100005.95
2023-03-15T06:23:39.893Z,100004.20
2023-03-15T06:25:52.515Z,100008.74
2023-03-15T06:28:05.159Z,100008.83
2023-03-15T06:30:18.264Z,100016.79
2023-03-15T06:32:30.921Z,100024.22
2023-03-15T06:34:43.449Z,100021.08
2023-03-15T06:36:56.052Z,100028.71
2023-03-15T06:39:11.244Z,100032.38
2023-03-15T06:41:23.765Z,100038.78
2023-03-15T06:43:36.606Z,100049.06
2023-03-15T06:45:49.291Z,100051.64
2023-03-15T06:48:01.918Z,100054.59
2023-03-15T06:50:14.534Z,100058.95
2023-03-15T06:52:27.715Z,100065.20
2023-03-15T06:54:40.272Z,100068.88
2023-03-15T06:56:52.821Z,100072.23
2023-03-15T06:59:05.348Z,100081.17
2023-03-15T07:01:17.896Z,100080.03
2023-03-15T07:03:30.460Z,100086.27
2023-03-15T07:05:42.999Z,100086.38
2023-03-15T07:07:55.524Z,100086.73
2023-03-15T07:10:08.694Z,100090.98
2023-03-15T07:12:21.300Z,100092.48
2023-03-15T07:14:34.742Z,100095.35
2023-03-15T07:16:48.110Z,100094.35
2023-03-15T07:19:01.342Z,100096.01
2023-03-15T07:21:13.880Z,100096.20
2023-03-15T07:23:27.131Z,100100.27
2023-03-15T07:25:53.882Z,100105.83
2023-03-15T07:28:07.216Z,100100.75
2023-03-15T07:30:20.804Z,100101.83
2023-03-15T07:32:33.458Z,100103.23
2023-03-15T07:34:46.024Z,100105.70
2023-03-15T07:36:58.539Z,100111.53
2023-03-15T07:39:11.747Z,100113.48
2023-03-15T07:41:24.288Z,100114.46
2023-03-15T07:43:36.821Z,100119.94
2023-03-15T07:45:49.887Z,100124.31
2023-03-15T07:48:02.497Z,100125.77
2023-03-15T07:50:17.288Z,100122.86
2023-03-15T07:52:29.954Z,100121.45
2023-03-15T07:54:42.435Z,100125.37
2023-03-15T07:56:54.962Z,100124.13
2023-03-15T07:59:07.585Z,100126.23
2023-03-15T08:01:20.088Z,100131.73
2023-03-15T08:03:32.751Z,100138.14
2023-03-15T08:05:45.307Z,100133.50
2023-03-15T08:07:57.846Z,100142.21
2023-03-15T08:10:10.942Z,100141.93
2023-03-15T08:12:24.456Z,100145.84
2023-03-15T08:14:37.670Z,100149.98
2023-03-15T08:16:50.880Z,100154.88
2023-03-15T08:19:03.437Z,100156.31
2023-03-15T08:21:16.020Z,100148.18
2023-03-15T08:23:28.555Z,100152.39
2023-03-15T08:25:41.656Z,100151.67
2023-03-15T08:27:54.311Z,100159.06
2023-03-15T08:30:07.559Z,100157.30
2023-03-15T08:32:21.476Z,100159.13
2023-03-15T08:34:35.239Z,100163.79
2023-03-15T08:36:48.627Z,100161.31
2023-03-15T08:39:01.192Z,100163.90
2023-03-15T08:41:13.702Z,100162.80
2023-03-15T08:43:26.586Z,100162.29
2023-03-15T08:45:56.873Z,100166.55
2023-03-15T08:48:14.313Z,100169.07
2023-03-15T08:50:28.535Z,100167.30
2023-03-15T08:52:41.822Z,100173.07
2023-03-15T08:54:54.394Z,100174.95
2023-03-15T08:57:06.961Z,100179.49
2023-03-15T08:59:31.521Z,100174.79
2023-03-15T09:01:44.918Z,100181.88
2023-03-15T09:03:57.542Z,100183.93
2023-03-15T09:06:10.136Z,100186.13
2023-03-15T09:08:25.232Z,100188.55
2023-03-15T09:10:37.792Z,100186.69
2023-03-15T09:12:53.659Z,100185.48
2023-03-15T09:15:07.984Z,100184.11
2023-03-15T09:17:21.078Z,100184.86
2023-03-15T09:19:33.734Z,100184.70
2023-03-15T09:21:47.193Z,100185.48
2023-03-15T09:23:59.789Z,100190.20
2023-03-15T09:26:12.278Z,100191.48
2023-03-15T09:28:27.885Z,100190.19
2023-03-15T09:30:41.357Z,100184.81
2023-03-15T09:32:53.909Z,100189.20
2023-03-15T09:35:08.906Z,100192.56
2023-03-15T09:37:21.935Z,100199.34
2023-03-15T09:39:34.505Z,100199.23
2023-03-15T09:41:58.920Z,100197.16
2023-03-15T09:44:38.253Z,100201.05
2023-03-15T09:47:28.499Z,100201.66
2023-03-15T09:50:18.059Z,100200.73
2023-03-15T09:52:37.285Z,100202.25
2023-03-15T09:54:56.858Z,100209.23
2023-03-15T09:57:23.838Z,100213.52
2023-03-15T09:59:42.917Z,100200.11
2023-03-15T10:01:57.721Z,100204.22
2023-03-15T10:04:18.994Z,100205.04
2023-03-15T10:06:36.474Z,100206.31
2023-03-15T10:08:53.494Z,100202.37
2023-03-15T10:11:18.858Z,100200.91
2023-03-15T10:13:42.527Z,100201.84
2023-03-15T10:16:35.136Z,100202.19
2023-03-15T10:19:13.795Z,100198.45
2023-03-15T10:21:49.464Z,100201.97
2023-03-15T10:24:04.301Z,100196.86
2023-03-15T10:26:23.019Z,100195.08
2023-03-15T10:28:37.607Z,100193.08
2023-03-15T10:30:51.540Z,100197.02
2023-03-15T10:33:15.715Z,100189.73
2023-03-15T10:35:28.682Z,100191.50
2023-03-15T10:37:42.620Z,100196.79
2023-03-15T10:39:58.235Z,100196.64
2023-03-15T10:42:27.056Z,100200.61
2023-03-15T10:44:39.545Z,100200.98
2023-03-15T10:47:23.685Z,100197.63
2023-03-15T10:49:39.149Z,100199.37
2023-03-15T10:51:51.915Z,100208.25
2023-03-15T10:54:24.021Z,100211.33
2023-03-15T10:56:45.444Z,100213.78
2023-03-15T10:59:11.953Z,100219.02
2023-03-15T11:01:28.603Z,100222.84
2023-03-15T11:03:43.976Z,100218.02
2023-03-15T11:05:58.828Z,100217.39
2023-03-15T11:08:14.747Z,100218.38
2023-03-15T11:10:29.535Z,100207.01
2023-03-15T11:12:42.500Z,100204.22
2023-03-15T11:15:04.155Z,100198.90
2023-03-15T11:17:26.699Z,100196.20
2023-03-15T11:19:42.471Z,100200.58
2023-03-15T11:21:56.343Z,100205.02
2023-03-15T11:24:20.976Z,100207.67
2023-03-15T11:26:37.791Z,100211.14
2023-03-15T11:28:54.103Z,100210.48
2023-03-15T11:31:06.856Z,100215.13
2023-03-15T11:33:51.250Z,100216.73
2023-03-15T11:36:13.416Z,100218.35
2023-03-15T11:38:35.040Z,100217.13
2023-03-15T11:40:53.561Z,100216.66
2023-03-15T11:43:23.096Z,100222.58
2023-03-15T11:45:42.550Z,100225.07
2023-03-15T11:47:59.689Z,100227.11
2023-03-15T11:50:15.602Z,100218.66
2023-03-15T11:52:29.702Z,100217.54
2023-03-15T11:54:44.974Z,100213.39
2023-03-15T11:57:28.314Z,100211.61
2023-03-15T11:59:45.886Z,100211.91
2023-03-15T12:02:26.283Z,100214.30
2023-03-15T12:04:44.661Z,100209.61
2023-03-15T12:06:59.648Z,100214.17
2023-03-15T12:09:40.586Z,100217.77
2023-03-15T12:11:58.551Z,100218.21
2023-03-15T12:14:27.163Z,100218.95
2023-03-15T12:16:45.959Z,100216.82
2023-03-15T12:19:01.406Z,100213.65
2023-03-15T12:21:35.409Z,100214.20
2023-03-15T12:23:58.922Z,100216.55
2023-03-15T12:26:23.173Z,100213.25
2023-03-15T12:29:09.872Z,100218.96
2023-03-15T12:31:22.715Z,100214.23
2023-03-15T12:33:58.381Z,100215.73
2023-03-15T12:36:20.034Z,100216.77
2023-03-15T12:38:37.614Z,100218.56
2023-03-15T12:40:56.663Z,100219.98
2023-03-15T12:43:12.235Z,100219.11
2023-03-15T12:45:27.796Z,100220.83
2023-03-15T12:48:09.828Z,100223.35
2023-03-15T12:50:44.703Z,100229.26
2023-03-15T12:53:00.646Z,100227.46
2023-03-15T12:55:18.395Z,100228.73
2023-03-15T12:57:39.101Z,100232.91
2023-03-15T12:59:55.959Z,100232.15
2023-03-15T13:02:32.481Z,100231.34
2023-03-15T13:05:09.330Z,100236.72
2023-03-15T13:07:50.758Z,100242.47
2023-03-15T13:10:22.072Z,100240.23
2023-03-15T13:12:42.569Z,100240.45
2023-03-15T13:15:19.399Z,100247.67
2023-03-15T13:17:52.491Z,100248.47
2023-03-15T13:20:23.423Z,100249.05
2023-03-15T13:23:15.034Z,100251.50
2023-03-15T13:25:39.537Z,100256.29
2023-03-15T13:27:56.686Z,100255.73
2023-03-15T13:30:37.202Z,100258.77
2023-03-15T13:33:02.312Z,100254.77
2023-03-15T13:35:23.933Z,100260.44
2023-03-15T13:37:42.205Z,100258.48
2023-03-15T13:39:57.433Z,100264.75
2023-03-15T13:42:24.126Z,100268.63
2023-03-15T13:44:36.684Z,100272.95
2023-03-15T13:46:50.481Z,100276.25
2023-03-15T13:49:03.061Z,100280.73
2023-03-15T13:51:28.012Z,100280.15
2023-03-15T13:53:49.568Z,100280.61
2023-03-15T13:56:07.682Z,100275.34
2023-03-15T13:58:23.542Z,100275.10
2023-03-15T14:00:37.025Z,100277.41
2023-03-15T14:03:00.662Z,100277.27
2023-03-15T14:05:16.692Z,100281.54
2023-03-15T14:07:41.782Z,100278.04
2023-03-15T14:10:21.668Z,100280.18
2023-03-15T14:12:34.854Z,100281.48
2023-03-15T14:14:53.145Z,100283.52
2023-03-15T14:17:27.144Z,100280.84
2023-03-15T14:19:40.322Z,100282.80
2023-03-15T14:22:03.139Z,100281.68
2023-03-15T14:24:36.332Z,100288.14
2023-03-15T14:26:54.697Z,100288.69
2023-03-15T14:29:16.521Z,100287.56
2023-03-15T14:31:32.306Z,100292.30
2023-03-15T14:33:54.038Z,100291.30
2023-03-15T14:36:25.222Z,100290.70
2023-03-15T14:38:39.250Z,100291.14
2023-03-15T14:40:53.462Z,100290.41
2023-03-15T14:43:09.254Z,100291.81
2023-03-15T14:45:22.418Z,100294.44
2023-03-15T14:47:55.013Z,100298.61
2023-03-15T14:50:18.284Z,100298.61
2023-03-15T14:52:33.002Z,100295.52
2023-03-15T14:54:49.639Z,100291.14
2023-03-15T14:57:02.408Z,100292.35
2023-03-15T14:59:15.062Z,100295.53
2023-03-15T15:01:28.127Z,100305.40
2023-03-15T15:03:47.019Z,100307.97
2023-03-15T15:06:01.128Z,100310.92
2023-03-15T15:08:18.058Z,100322.11
2023-03-15T15:10:32.145Z,100324.84
2023-03-15T15:12:46.709Z,100325.70
2023-03-15T15:15:01.044Z,100328.63
2023-03-15T15:17:13.820Z,100331.64
2023-03-15T15:19:26.390Z,100333.70
2023-03-15T15:21:39.542Z,100339.84
2023-03-15T15:23:58.611Z,100345.08
2023-03-15T15:26:20.644Z,100348.73
2023-03-15T15:28:36.851Z,100350.50
2023-03-15T15:30:52.137Z,100350.10
2023-03-15T15:33:05.877Z,100353.67
2023-03-15T15:35:20.053Z,100360.39
2023-03-15T15:37:32.595Z,100358.24
2023-03-15T15:39:45.157Z,100358.23
2023-03-15T15:41:57.787Z,100357.73
2023-03-15T15:44:19.953Z,100356.38
2023-03-15T15:46:32.931Z,100352.85
2023-03-15T15:48:45.745Z,100354.55
2023-03-15T15:50:58.290Z,100356.84
2023-03-15T15:53:16.364Z,100352.46
2023-03-15T15:55:33.628Z,100355.17
2023-03-15T15:57:49.569Z,100355.64
2023-03-15T16:00:02.256Z,100355.89
2023-03-15T16:02:21.997Z,100353.59
2023-03-15T16:04:34.710Z,100353.41
2023-03-15T16:06:53.683Z,100355.30
2023-03-15T16:09:08.376Z,100360.35
2023-03-15T16:11:21.157Z,100364.73
2023-03-15T16:13:33.804Z,100363.36
2023-03-15T16:15:46.392Z,100365.77
2023-03-15T16:18:01.146Z,100368.65
2023-03-15T16:20:18.335Z,100373.17
2023-03-15T16:22:31.709Z,100374.89
2023-03-15T16:24:47.165Z,100378.08
2023-03-15T16:27:05.372Z,100382.16
2023-03-15T16:29:22.280Z,100387.77
2023-03-15T16:31:35.197Z,100389.54
2023-03-15T16:33:48.804Z,100394.27
2023-03-15T16:36:02.629Z,100399.30
2023-03-15T16:38:23.867Z,100395.44
2023-03-15T16:40:41.130Z,100402.41
2023-03-15T16:42:54.518Z,100402.14
2023-03-15T16:45:13.953Z,100404.43
2023-03-15T16:47:26.659Z,100403.35
2023-03-15T16:49:39.266Z,100407.16
2023-03-15T16:51:53.530Z,100409.21
2023-03-15T16:54:19.579Z,100416.16
2023-03-15T16:56:37.125Z,100422.63
2023-03-15T16:58:52.681Z,100429.73
2023-03-15T17:01:08.203Z,100427.88
2023-03-15T17:03:21.312Z,100433.13
2023-03-15T17:05:33.928Z,100438.71
2023-03-15T17:07:48.864Z,100440.99
2023-03-15T17:10:08.236Z,100447.71
2023-03-15T17:12:24.896Z,100452.09
2023-03-15T17:14:38.835Z,100454.54
2023-03-15T17:16:51.377Z,100454.58
2023-03-15T17:19:04.339Z,100458.40
2023-03-15T17:21:20.474Z,100463.23
2023-03-15T17:23:33.138Z,100464.84
2023-03-15T17:25:45.710Z,100465.27
2023-03-15T17:27:58.257Z,100469.30
2023-03-15T17:30:19.508Z,100473.35
2023-03-15T17:32:32.130Z,100474.17
2023-03-15T17:34:47.193Z,100476.86
2023-03-15T17:36:59.810Z,100475.40
2023-03-15T17:39:17.044Z,100476.48
2023-03-15T17:41:36.955Z,100476.33
2023-03-15T17:43:51.607Z,100481.19
2023-03-15T17:46:04.217Z,100483.95
2023-03-15T17:48:16.838Z,100482.21
2023-03-15T17:50:32.339Z,100485.09
2023-03-15T17:52:46.400Z,100487.31
2023-03-15T17:54:58.917Z,100490.05
2023-03-15T17:57:12.900Z,100493.31
2023-03-15T17:59:25.461Z,100499.85
2023-03-15T18:01:40.758Z,100501.96
2023-03-15T18:03:54.459Z,100502.33
2023-03-15T18:06:07.384Z,100504.98
2023-03-15T18:08:21.335Z,100505.05
2023-03-15T18:10:36.874Z,100504.06
2023-03-15T18:12:49.524Z,100509.10
2023-03-15T18:15:02.960Z,100511.56
2023-03-15T18:17:15.682Z,100519.50
2023-03-15T18:19:28.499Z,100519.39
2023-03-15T18:21:41.087Z,100518.40
2023-03-15T18:23:54.148Z,100519.95
2023-03-15T18:26:07.008Z,100523.08
2023-03-15T18:28:19.549Z,100525.14
2023-03-15T18:30:32.161Z,100528.74
2023-03-15T18:32:45.488Z,100526.70
2023-03-15T18:34:58.145Z,100528.78
2023-03-15T18:37:11.683Z,100530.85
2023-03-15T18:39:25.238Z,100528.63
2023-03-15T18:41:37.820Z,100530.88
2023-03-15T18:43:51.659Z,100530.22
2023-03-15T18:46:04.340Z,100534.20
2023-03-15T18:48:18.394Z,100535.61
2023-03-15T18:50:33.679Z,100536.34
2023-03-15T18:52:46.396Z,100537.58
2023-03-15T18:54:59.033Z,100537.14
2023-03-15T18:57:11.652Z,100543.02
2023-03-15T18:59:25.851Z,100544.46
2023-03-15T19:01:38.746Z,100546.20
2023-03-15T19:03:52.697Z,100551.90
2023-03-15T19:06:07.682Z,100556.54
2023-03-15T19:08:20.357Z,100561.00
2023-03-15T19:10:33.024Z,100564.27
2023-03-15T19:12:46.909Z,100566.16
2023-03-15T19:14:59.550Z,100571.31
2023-03-15T19:17:12.266Z,100571.16
2023-03-15T19:19:24.873Z,100573.91
2023-03-15T19:21:38.814Z,100581.96
2023-03-15T19:23:51.402Z,100583.51
2023-03-15T19:26:04.623Z,100584.02
2023-03-15T19:28:17.274Z,100586.59
2023-03-15T19:30:30.871Z,100586.41
2023-03-15T19:32:46.792Z,100591.71
2023-03-15T19:34:59.365Z,100592.06
2023-03-15T19:37:12.167Z,100598.92
2023-03-15T19:39:24.848Z,100597.71
2023-03-15T19:41:37.596Z,100602.50
2023-03-15T19:43:50.184Z,100598.92
2023-03-15T19:46:05.122Z,100604.92
2023-03-15T19:48:17.737Z,100608.67
2023-03-15T19:50:32.452Z,100607.98
2023-03-15T19:52:48.228Z,100614.66
2023-03-15T19:55:01.187Z,100617.05
2023-03-15T19:57:14.242Z,100623.21
2023-03-15T19:59:27.297Z,100625.61
2023-03-15T20:01:39.998Z,100626.13
2023-03-15T20:03:52.619Z,100626.98
2023-03-15T20:06:07.840Z,100629.53
2023-03-15T20:08:20.867Z,100633.46
2023-03-15T20:10:33.590Z,100636.20
2023-03-15T20:12:47.169Z,100638.95
2023-03-15T20:14:59.768Z,100643.22
2023-03-15T20:17:12.396Z,100642.70
2023-03-15T20:19:24.980Z,100644.40
2023-03-15T20:21:37.831Z,100643.05
2023-03-15T20:23:50.509Z,100652.45
2023-03-15T20:26:10.716Z,100656.03
2023-03-15T20:28:23.461Z,100660.98
2023-03-15T20:30:39.150Z,100661.67
2023-03-15T20:32:52.084Z,100662.36
2023-03-15T20:35:09.023Z,100661.49
2023-03-15T20:37:22.843Z,100662.86
2023-03-15T20:39:35.424Z,100664.39
2023-03-15T20:41:48.039Z,100666.26
2023-03-15T20:44:01.269Z,100666.95
2023-03-15T20:46:16.649Z,100669.84
2023-03-15T20:48:31.496Z,100671.70
2023-03-15T20:50:46.800Z,100670.99
2023-03-15T20:52:59.348Z,100674.05
2023-03-15T20:55:13.654Z,100676.60
2023-03-15T20:57:26.371Z,100679.98
2023-03-15T20:59:39.784Z,100681.36
2023-03-15T21:01:52.737Z,100681.00
2023-03-15T21:04:05.478Z,100683.38
2023-03-15T21:06:18.052Z,100682.19
2023-03-15T21:08:31.221Z,100684.23
2023-03-15T21:10:43.842Z,100687.63
2023-03-15T21:12:56.410Z,100688.31
2023-03-15T21:15:09.349Z,100694.10
2023-03-15T21:17:21.890Z,100699.55
2023-03-15T21:19:34.456Z,100701.23
2023-03-15T21:21:48.654Z,100705.30
2023-03-15T21:24:02.140Z,100705.46
2023-03-15T21:26:14.883Z,100706.98
2023-03-15T21:28:28.248Z,100708.88
2023-03-15T21:30:41.125Z,100712.45
2023-03-15T21:32:53.753Z,100716.03
2023-03-15T21:35:07.368Z,100717.56
2023-03-15T21:37:20.076Z,100715.17
2023-03-15T21:39:32.645Z,100717.41
2023-03-15T21:41:45.250Z,100719.64
2023-03-15T21:43:57.793Z,100722.88
2023-03-15T21:46:13.843Z,100728.85
2023-03-15T21:48:27.019Z,100733.14
2023-03-15T21:50:39.879Z,100732.11
2023-03-15T21:52:52.821Z,100736.36
2023-03-15T21:55:06.422Z,100736.34
2023-03-15T21:57:19.266Z,100738.39
2023-03-15T21:59:32.109Z,100738.04
2023-03-15T22:01:44.771Z,100741.97
2023-03-15T22:03:57.332Z,100742.66
2023-03-15T22:06:12.967Z,100747.58
2023-03-15T22:08:26.245Z,100748.58
2023-03-15T22:10:38.811Z,100750.80
2023-03-15T22:12:53.866Z,100749.80
2023-03-15T22:15:07.702Z,100754.22
2023-03-15T22:17:20.276Z,100756.42
2023-03-15T22:19:33.009Z,100762.23
2023-03-15T22:21:45.573Z,100761.19
2023-03-15T22:23:58.287Z,100765.63
2023-03-15T22:26:11.101Z,100761.81
2023-03-15T22:28:25.129Z,100765.36
2023-03-15T22:30:37.794Z,100765.11
2023-03-15T22:32:50.515Z,100764.89
2023-03-15T22:35:04.331Z,100766.56
2023-03-15T22:37:16.942Z,100768.43
2023-03-15T22:39:31.275Z,100769.95
2023-03-15T22:41:43.851Z,100766.38
2023-03-15T22:43:57.640Z,100764.17
2023-03-15T22:46:10.274Z,100768.26
2023-03-15T22:48:23.234Z,100767.87
2023-03-15T22:50:35.794Z,100767.36
2023-03-15T22:52:48.501Z,100770.10
2023-03-15T22:55:01.110Z,100769.24
2023-03-15T22:57:13.847Z,100771.64
2023-03-15T22:59:28.956Z,100766.51
2023-03-15T23:01:41.600Z,100764.07
2023-03-15T23:03:54.247Z,100770.54
2023-03-15T23:06:06.937Z,100768.11
2023-03-15T23:08:19.612Z,100771.48
2023-03-15T23:10:33.048Z,100771.48
2023-03-15T23:12:45.998Z,100775.75
2023-03-15T23:14:58.696Z,100778.65
2023-03-15T23:17:11.400Z,100780.00
2023-03-15T23:19:23.969Z,100784.10
2023-03-15T23:21:36.633Z,100784.58
2023-03-15T23:23:49.261Z,100786.63
2023-03-15T23:26:02.439Z,100789.16
2023-03-15T23:28:17.342Z,100793.25
2023-03-15T23:30:35.473Z,100795.11
2023-03-15T23:32:49.452Z,100799.16
2023-03-15T23:35:03.857Z,100798.27
2023-03-15T23:37:16.819Z,100798.05
2023-03-15T23:39:29.645Z,100796.80
2023-03-15T23:41:45.668Z,100798.47
2023-03-15T23:43:58.312Z,100800.17
2023-03-15T23:46:14.542Z,100799.85
2023-03-15T23:48:27.786Z,100800.55
2023-03-15T23:50:45.173Z,100802.95
2023-03-15T23:52:57.808Z,100807.06
2023-03-15T23:55:11.570Z,100806.58
2023-03-15T23:57:24.358Z,100810.85
2023-03-15T23:59:38.644Z,100810.83
